Agana Heights, GU

6:04 AM ChST on May 28, 2015 (GMT +1000)
Maite | | Change Station
CLOSE
Current Station
Personal Weather Station
Location: Maite, GU
Elevation: 140 ft
Nearby Weather Stations

Elev 140 ft 13.48 °N, 144.76 °E | Updated 3 seconds ago

Light Rain
Light Rain Mist
77.5 °F
Feels Like 79 °F
N
0.0
Wind Variable Wind from North
Gusts 0.0 mph

Today
High -- | Low -- °F
--% Chance of Precip.
Yesterday
High -- | Low -- °F
Precip. -- in
5:53 AM 6:43 PM
Waxing Gibbous, 69% visible
Pressure 29.81 in
Visibility 6.0 miles
Clouds Few 2400 ft
Scattered Clouds 4400 ft
Scattered Clouds 7000 ft
Heat Index 79 °F
Dew Point 77 °F
Humidity 97%
Rainfall 0.15 in
Snow Depth Not available.
UV 0.0 out of 12
Pollen Not available.
Air Quality Not available.
Flu Activity Regional
METAR PGUM 271954Z 11004KT 6SM -RA BR FEW024 SCT044 SCT070 26/24 A2984 RMK AO2 RAB49 SLP095 P0001 T02560244

More Conditions Fewer Conditions

Pressure 29.81 in
Visibility 6.0 miles
Clouds Few 2400 ft
Scattered Clouds 4400 ft
Scattered Clouds 7000 ft
Heat Index 79 °F
Dew Point 77 °F
Humidity 97%
Rainfall 0.15 in
Snow Depth Not available.
UV 0.0 out of 12
Pollen Not available.
Air Quality Not available.
Flu Activity Regional
METAR PGUM 271954Z 11004KT 6SM -RA BR FEW024 SCT044 SCT070 26/24 A2984 RMK AO2 RAB49 SLP095 P0001 T02560244

More Conditions Fewer Conditions

10-Day Weather Forecast

Almanac

Astronomy

May. 28, 2015 Rise Set
Actual Time
Civil Twilight
Nautical Twilight
Astronomical Twilight
Moon
Length of Visible Light
Length of Day
Tomorrow will be .
, % of the Moon is Illuminated

Today's Extremes

State Highs State Lows

Community

WunderPhotos

Upload Photos

1,824,777 photos uploaded!

WunderBlogs® & News

Nearby

Air Quality

  Air Quality AQ Index Pollutant
Not available.

Snow Depth

Station Depth Elevation

Earthquake Activity

City Distance Mag. Time & Date
Minimum magnitude displayed is 2.5.

Coastal Water Temperatures

Place Temperature

Stations

Nearby Weather Stations

Station Location Temp. Windchill Dew Point Humidity Wind Precip. Elev Updated Type